sensor_id;sensor_type;location;lat;lon;timestamp;pressure;altitude;pressure_sealevel;temperature
26158;BMP280;67284;44.782;10.282;2023-04-15T00:01:25;99734.34;;;13.57
26158;BMP280;67284;44.782;10.282;2023-04-15T00:06:18;99731.72;;;13.58
26158;BMP280;67284;44.782;10.282;2023-04-15T00:11:13;99754.16;;;13.58
26158;BMP280;67284;44.782;10.282;2023-04-15T00:16:06;99748.00;;;13.60
26158;BMP280;67284;44.782;10.282;2023-04-15T00:20:59;99748.00;;;13.60
26158;BMP280;67284;44.782;10.282;2023-04-15T00:25:51;99741.06;;;13.62
26158;BMP280;67284;44.782;10.282;2023-04-15T00:30:43;99729.78;;;13.63
26158;BMP280;67284;44.782;10.282;2023-04-15T00:35:36;99723.84;;;13.61
26158;BMP280;67284;44.782;10.282;2023-04-15T00:40:28;99724.75;;;13.60
26158;BMP280;67284;44.782;10.282;2023-04-15T00:45:20;99720.50;;;13.59
26158;BMP280;67284;44.782;10.282;2023-04-15T00:50:12;99712.78;;;13.58
26158;BMP280;67284;44.782;10.282;2023-04-15T00:55:05;99717.09;;;13.57
26158;BMP280;67284;44.782;10.282;2023-04-15T00:59:57;99722.28;;;13.57
26158;BMP280;67284;44.782;10.282;2023-04-15T01:04:49;99714.56;;;13.56
26158;BMP280;67284;44.782;10.282;2023-04-15T01:09:41;99724.09;;;13.55
26158;BMP280;67284;44.782;10.282;2023-04-15T01:14:33;99715.53;;;13.53
26158;BMP280;67284;44.782;10.282;2023-04-15T01:19:25;99707.84;;;13.52
26158;BMP280;67284;44.782;10.282;2023-04-15T01:24:18;99711.38;;;13.50
26158;BMP280;67284;44.782;10.282;2023-04-15T01:29:10;99720.94;;;13.48
26158;BMP280;67284;44.782;10.282;2023-04-15T01:34:02;99720.97;;;13.46
26158;BMP280;67284;44.782;10.282;2023-04-15T01:38:55;99716.69;;;13.45
26158;BMP280;67284;44.782;10.282;2023-04-15T01:43:47;99721.88;;;13.45
26158;BMP280;67284;44.782;10.282;2023-04-15T01:48:39;99709.88;;;13.44
26158;BMP280;67284;44.782;10.282;2023-04-15T01:53:31;99714.19;;;13.44
26158;BMP280;67284;44.782;10.282;2023-04-15T01:58:23;99708.25;;;13.42
26158;BMP280;67284;44.782;10.282;2023-04-15T02:03:15;99711.00;;;13.37
26158;BMP280;67284;44.782;10.282;2023-04-15T02:08:08;99713.88;;;13.28
26158;BMP280;67284;44.782;10.282;2023-04-15T02:13:01;99707.19;;;13.23
26158;BMP280;67284;44.782;10.282;2023-04-15T02:17:53;99706.47;;;13.19
26158;BMP280;67284;44.782;10.282;2023-04-15T02:22:46;99704.84;;;13.17
26158;BMP280;67284;44.782;10.282;2023-04-15T02:27:39;99703.94;;;13.18
26158;BMP280;67284;44.782;10.282;2023-04-15T02:32:31;99703.78;;;13.22
26158;BMP280;67284;44.782;10.282;2023-04-15T02:37:23;99703.78;;;13.22
26158;BMP280;67284;44.782;10.282;2023-04-15T02:42:19;99713.34;;;13.20
26158;BMP280;67284;44.782;10.282;2023-04-15T02:47:13;99709.13;;;13.18
26158;BMP280;67284;44.782;10.282;2023-04-15T02:52:06;99707.47;;;13.15
26158;BMP280;67284;44.782;10.282;2023-04-15T02:56:58;99717.28;;;13.06
26158;BMP280;67284;44.782;10.282;2023-04-15T03:01:50;99719.34;;;12.97
26158;BMP280;67284;44.782;10.282;2023-04-15T03:06:42;99735.97;;;12.90
26158;BMP280;67284;44.782;10.282;2023-04-15T03:11:34;99716.25;;;12.87
26158;BMP280;67284;44.782;10.282;2023-04-15T03:16:33;99726.69;;;12.84
26158;BMP280;67284;44.782;10.282;2023-04-15T03:21:25;99738.84;;;12.79
26158;BMP280;67284;44.782;10.282;2023-04-15T03:26:28;99753.59;;;12.76
26158;BMP280;67284;44.782;10.282;2023-04-15T03:31:24;99750.22;;;12.74
26158;BMP280;67284;44.782;10.282;2023-04-15T03:36:16;99757.03;;;12.76
26158;BMP280;67284;44.782;10.282;2023-04-15T03:41:08;99753.56;;;12.77
26158;BMP280;67284;44.782;10.282;2023-04-15T03:46:00;99753.44;;;12.80
26158;BMP280;67284;44.782;10.282;2023-04-15T03:50:53;99757.81;;;12.78
26158;BMP280;67284;44.782;10.282;2023-04-15T03:55:44;99757.03;;;12.76
26158;BMP280;67284;44.782;10.282;2023-04-15T04:00:38;99745.00;;;12.75
26158;BMP280;67284;44.782;10.282;2023-04-15T04:05:30;99747.63;;;12.74
26158;BMP280;67284;44.782;10.282;2023-04-15T04:10:22;99747.78;;;12.69
26158;BMP280;67284;44.782;10.282;2023-04-15T04:15:14;99761.78;;;12.62
26158;BMP280;67284;44.782;10.282;2023-04-15T04:20:07;99783.41;;;12.58
26158;BMP280;67284;44.782;10.282;2023-04-15T04:24:58;99778.31;;;12.57
26158;BMP280;67284;44.782;10.282;2023-04-15T04:29:53;99775.78;;;12.55
26158;BMP280;67284;44.782;10.282;2023-04-15T04:34:44;99785.13;;;12.59
26158;BMP280;67284;44.782;10.282;2023-04-15T04:39:36;99794.44;;;12.63
26158;BMP280;67284;44.782;10.282;2023-04-15T04:44:28;99794.44;;;12.63
26158;BMP280;67284;44.782;10.282;2023-04-15T04:49:20;99801.38;;;12.61
26158;BMP280;67284;44.782;10.282;2023-04-15T04:54:12;99808.38;;;12.58
26158;BMP280;67284;44.782;10.282;2023-04-15T04:59:04;99807.56;;;12.56
26158;BMP280;67284;44.782;10.282;2023-04-15T05:03:57;99811.94;;;12.54
26158;BMP280;67284;44.782;10.282;2023-04-15T05:08:50;99814.63;;;12.51
26158;BMP280;67284;44.782;10.282;2023-04-15T05:13:42;99828.41;;;12.50
26158;BMP280;67284;44.782;10.282;2023-04-15T05:18:34;99828.41;;;12.50
26158;BMP280;67284;44.782;10.282;2023-04-15T05:23:26;99837.81;;;12.52
26158;BMP280;67284;44.782;10.282;2023-04-15T05:28:18;99846.31;;;12.54
26158;BMP280;67284;44.782;10.282;2023-04-15T05:33:10;99843.78;;;12.53
26158;BMP280;67284;44.782;10.282;2023-04-15T05:38:02;99859.22;;;12.54
26158;BMP280;67284;44.782;10.282;2023-04-15T05:42:54;99855.72;;;12.57
26158;BMP280;67284;44.782;10.282;2023-04-15T05:47:46;99859.19;;;12.56
26158;BMP280;67284;44.782;10.282;2023-04-15T05:52:38;99860.00;;;12.58
26158;BMP280;67284;44.782;10.282;2023-04-15T05:57:30;99861.66;;;12.60
26158;BMP280;67284;44.782;10.282;2023-04-15T06:02:22;99862.44;;;12.62
26158;BMP280;67284;44.782;10.282;2023-04-15T06:07:14;99859.84;;;12.62
26158;BMP280;67284;44.782;10.282;2023-04-15T06:12:06;99870.94;;;12.66
26158;BMP280;67284;44.782;10.282;2023-04-15T06:17:03;99873.59;;;12.63
26158;BMP280;67284;44.782;10.282;2023-04-15T06:21:55;99874.50;;;12.62
26158;BMP280;67284;44.782;10.282;2023-04-15T06:26:47;99874.50;;;12.62
26158;BMP280;67284;44.782;10.282;2023-04-15T06:31:39;99871.06;;;12.61
26158;BMP280;67284;44.782;10.282;2023-04-15T06:36:32;99870.16;;;12.62
26158;BMP280;67284;44.782;10.282;2023-04-15T06:41:24;99870.16;;;12.62
26158;BMP280;67284;44.782;10.282;2023-04-15T06:46:16;99867.63;;;12.61
26158;BMP280;67284;44.782;10.282;2023-04-15T06:51:08;99867.59;;;12.62
26158;BMP280;67284;44.782;10.282;2023-04-15T06:56:00;99871.78;;;12.66
26158;BMP280;67284;44.782;10.282;2023-04-15T07:00:52;99878.53;;;12.70
26158;BMP280;67284;44.782;10.282;2023-04-15T07:05:44;99877.59;;;12.73
26158;BMP280;67284;44.782;10.282;2023-04-15T07:10:36;99875.03;;;12.71
26158;BMP280;67284;44.782;10.282;2023-04-15T07:15:28;99890.53;;;12.71
26158;BMP280;67284;44.782;10.282;2023-04-15T07:20:20;99889.53;;;12.75
26158;BMP280;67284;44.782;10.282;2023-04-15T07:25:12;99890.41;;;12.76
26158;BMP280;67284;44.782;10.282;2023-04-15T07:30:04;99889.44;;;12.78
26158;BMP280;67284;44.782;10.282;2023-04-15T07:34:57;99892.00;;;12.80
26158;BMP280;67284;44.782;10.282;2023-04-15T07:39:49;99893.72;;;12.79
26158;BMP280;67284;44.782;10.282;2023-04-15T07:44:40;99889.44;;;12.80
26158;BMP280;67284;44.782;10.282;2023-04-15T07:49:32;99883.28;;;12.84
26158;BMP280;67284;44.782;10.282;2023-04-15T07:54:24;99883.22;;;12.85
26158;BMP280;67284;44.782;10.282;2023-04-15T07:59:16;99879.75;;;12.86
26158;BMP280;67284;44.782;10.282;2023-04-15T08:04:08;99883.16;;;12.88
26158;BMP280;67284;44.782;10.282;2023-04-15T08:09:01;99882.97;;;12.94
26158;BMP280;67284;44.782;10.282;2023-04-15T08:13:53;99875.13;;;12.97
26158;BMP280;67284;44.782;10.282;2023-04-15T08:18:46;99879.34;;;13.00
26158;BMP280;67284;44.782;10.282;2023-04-15T08:23:42;99886.22;;;12.99
26158;BMP280;67284;44.782;10.282;2023-04-15T08:28:37;99885.22;;;13.03
26158;BMP280;67284;44.782;10.282;2023-04-15T08:33:29;99876.59;;;13.04
26158;BMP280;67284;44.782;10.282;2023-04-15T08:38:21;99880.88;;;13.05
26158;BMP280;67284;44.782;10.282;2023-04-15T08:43:22;99880.78;;;13.08
26158;BMP280;67284;44.782;10.282;2023-04-15T08:48:20;99880.69;;;13.11
26158;BMP280;67284;44.782;10.282;2023-04-15T08:53:12;99878.78;;;13.16
26158;BMP280;67284;44.782;10.282;2023-04-15T08:58:04;99869.19;;;13.19
26158;BMP280;67284;44.782;10.282;2023-04-15T09:02:57;99878.69;;;13.19
26158;BMP280;67284;44.782;10.282;2023-04-15T09:07:50;99872.50;;;13.23
26158;BMP280;67284;44.782;10.282;2023-04-15T09:12:42;99869.03;;;13.24
26158;BMP280;67284;44.782;10.282;2023-04-15T09:17:41;99866.25;;;13.30
26158;BMP280;67284;44.782;10.282;2023-04-15T09:22:33;99863.47;;;13.36
26158;BMP280;67284;44.782;10.282;2023-04-15T09:27:25;99864.25;;;13.38
26158;BMP280;67284;44.782;10.282;2023-04-15T09:32:17;99853.72;;;13.44
26158;BMP280;67284;44.782;10.282;2023-04-15T09:37:09;99857.22;;;13.43
26158;BMP280;67284;44.782;10.282;2023-04-15T09:42:07;99846.38;;;13.56
26158;BMP280;67284;44.782;10.282;2023-04-15T09:46:59;99836.41;;;13.70
26158;BMP280;67284;44.782;10.282;2023-04-15T09:51:57;99835.28;;;13.77
26158;BMP280;67284;44.782;10.282;2023-04-15T09:56:56;99835.22;;;13.78
26158;BMP280;67284;44.782;10.282;2023-04-15T10:01:48;99833.66;;;13.74
26158;BMP280;67284;44.782;10.282;2023-04-15T10:06:40;99820.84;;;13.71
26158;BMP280;67284;44.782;10.282;2023-04-15T10:11:32;99817.81;;;13.83
26158;BMP280;67284;44.782;10.282;2023-04-15T10:16:26;99819.50;;;13.84
26158;BMP280;67284;44.782;10.282;2023-04-15T10:21:21;99812.72;;;13.80
26158;BMP280;67284;44.782;10.282;2023-04-15T10:26:14;99801.56;;;13.80
26158;BMP280;67284;44.782;10.282;2023-04-15T10:31:08;99801.44;;;13.83
26158;BMP280;67284;44.782;10.282;2023-04-15T10:36:02;99796.84;;;14.13
26158;BMP280;67284;44.782;10.282;2023-04-15T10:41:11;99786.63;;;14.10
26158;BMP280;67284;44.782;10.282;2023-04-15T10:46:06;99777.22;;;14.08
26158;BMP280;67284;44.782;10.282;2023-04-15T10:51:02;99779.69;;;14.11
26158;BMP280;67284;44.782;10.282;2023-04-15T10:55:56;99780.69;;;14.30
26158;BMP280;67284;44.782;10.282;2023-04-15T11:00:52;99773.06;;;14.27
26158;BMP280;67284;44.782;10.282;2023-04-15T11:05:48;99768.72;;;14.27
26158;BMP280;67284;44.782;10.282;2023-04-15T11:15:37;99779.59;;;14.57
26158;BMP280;67284;44.782;10.282;2023-04-15T11:20:31;99765.13;;;14.72
26158;BMP280;67284;44.782;10.282;2023-04-15T11:25:26;99768.53;;;14.94
26158;BMP280;67284;44.782;10.282;2023-04-15T11:30:21;99765.47;;;15.05
26158;BMP280;67284;44.782;10.282;2023-04-15T11:35:13;99752.44;;;15.08
26158;BMP280;67284;44.782;10.282;2023-04-15T11:40:06;99753.84;;;15.14
26158;BMP280;67284;44.782;10.282;2023-04-15T11:50:22;99748.69;;;15.34
26158;BMP280;67284;44.782;10.282;2023-04-15T11:55:14;99743.44;;;15.36
26158;BMP280;67284;44.782;10.282;2023-04-15T12:00:06;99744.59;;;15.29
26158;BMP280;67284;44.782;10.282;2023-04-15T12:05:06;99739.97;;;15.35
26158;BMP280;67284;44.782;10.282;2023-04-15T12:09:59;99738.63;;;15.47
26158;BMP280;67284;44.782;10.282;2023-04-15T12:14:51;99738.13;;;15.57
26158;BMP280;67284;44.782;10.282;2023-04-15T12:19:43;99739.59;;;15.63
26158;BMP280;67284;44.782;10.282;2023-04-15T12:24:40;99740.72;;;15.75
26158;BMP280;67284;44.782;10.282;2023-04-15T12:29:36;99746.72;;;15.77
26158;BMP280;67284;44.782;10.282;2023-04-15T12:34:48;99742.56;;;15.73
26158;BMP280;67284;44.782;10.282;2023-04-15T12:39:42;99743.63;;;15.69
26158;BMP280;67284;44.782;10.282;2023-04-15T12:44:36;99742.56;;;15.73
26158;BMP280;67284;44.782;10.282;2023-04-15T12:49:31;99736.34;;;15.77
26158;BMP280;67284;44.782;10.282;2023-04-15T12:54:23;99745.63;;;15.81
26158;BMP280;67284;44.782;10.282;2023-04-15T12:59:15;99748.22;;;15.81
26158;BMP280;67284;44.782;10.282;2023-04-15T13:04:09;99740.44;;;15.81
26158;BMP280;67284;44.782;10.282;2023-04-15T13:09:02;99741.16;;;15.85
26158;BMP280;67284;44.782;10.282;2023-04-15T13:13:56;99752.50;;;15.82
26158;BMP280;67284;44.782;10.282;2023-04-15T13:18:48;99744.66;;;15.84
26158;BMP280;67284;44.782;10.282;2023-04-15T13:23:41;99738.50;;;15.86
26158;BMP280;67284;44.782;10.282;2023-04-15T13:28:33;99732.06;;;15.76
26158;BMP280;67284;44.782;10.282;2023-04-15T13:33:26;99731.00;;;15.80
26158;BMP280;67284;44.782;10.282;2023-04-15T13:38:18;99728.47;;;15.97
26158;BMP280;67284;44.782;10.282;2023-04-15T13:43:10;99733.31;;;16.05
26158;BMP280;67284;44.782;10.282;2023-04-15T13:48:02;99722.94;;;16.05
26158;BMP280;67284;44.782;10.282;2023-04-15T13:52:54;99729.66;;;16.09
26158;BMP280;67284;44.782;10.282;2023-04-15T13:57:46;99717.59;;;16.08
26158;BMP280;67284;44.782;10.282;2023-04-15T14:02:39;99725.72;;;16.18
26158;BMP280;67284;44.782;10.282;2023-04-15T14:07:33;99725.63;;;16.20
26158;BMP280;67284;44.782;10.282;2023-04-15T14:12:24;99722.97;;;16.21
26158;BMP280;67284;44.782;10.282;2023-04-15T14:17:16;99737.84;;;16.18
26158;BMP280;67284;44.782;10.282;2023-04-15T14:22:08;99724.97;;;16.16
26158;BMP280;67284;44.782;10.282;2023-04-15T14:27:00;99729.50;;;16.12
26158;BMP280;67284;44.782;10.282;2023-04-15T14:31:52;99727.22;;;16.06
26158;BMP280;67284;44.782;10.282;2023-04-15T14:37:02;99727.06;;;16.09
26158;BMP280;67284;44.782;10.282;2023-04-15T14:41:54;99714.34;;;16.21
26158;BMP280;67284;44.782;10.282;2023-04-15T14:46:46;99723.78;;;16.23
26158;BMP280;67284;44.782;10.282;2023-04-15T14:51:38;99725.38;;;16.26
26158;BMP280;67284;44.782;10.282;2023-04-15T14:56:32;99736.09;;;16.18
26158;BMP280;67284;44.782;10.282;2023-04-15T15:01:24;99738.28;;;16.27
26158;BMP280;67284;44.782;10.282;2023-04-15T15:06:16;99732.09;;;16.30
26158;BMP280;67284;44.782;10.282;2023-04-15T15:11:08;99742.25;;;16.34
26158;BMP280;67284;44.782;10.282;2023-04-15T15:16:01;99738.75;;;16.35
26158;BMP280;67284;44.782;10.282;2023-04-15T15:20:53;99746.47;;;16.37
26158;BMP280;67284;44.782;10.282;2023-04-15T15:25:45;99756.03;;;16.36
26158;BMP280;67284;44.782;10.282;2023-04-15T15:30:38;99758.69;;;16.35
26158;BMP280;67284;44.782;10.282;2023-04-15T15:35:29;99751.91;;;16.32
26158;BMP280;67284;44.782;10.282;2023-04-15T15:40:22;99763.81;;;16.36
26158;BMP280;67284;44.782;10.282;2023-04-15T15:45:14;99763.88;;;16.35
26158;BMP280;67284;44.782;10.282;2023-04-15T15:50:07;99771.75;;;16.33
26158;BMP280;67284;44.782;10.282;2023-04-15T15:54:59;99778.59;;;16.34
26158;BMP280;67284;44.782;10.282;2023-04-15T15:59:51;99785.94;;;16.26
26158;BMP280;67284;44.782;10.282;2023-04-15T16:05:00;99783.63;;;16.19
26158;BMP280;67284;44.782;10.282;2023-04-15T16:09:52;99791.78;;;16.12
26158;BMP280;67284;44.782;10.282;2023-04-15T16:14:44;99798.25;;;16.03
26158;BMP280;67284;44.782;10.282;2023-04-15T16:19:37;99812.25;;;15.99
26158;BMP280;67284;44.782;10.282;2023-04-15T16:24:30;99807.22;;;15.96
26158;BMP280;67284;44.782;10.282;2023-04-15T16:29:25;99819.34;;;15.96
26158;BMP280;67284;44.782;10.282;2023-04-15T16:34:17;99828.88;;;15.95
26158;BMP280;67284;44.782;10.282;2023-04-15T16:39:10;99840.16;;;15.94
26158;BMP280;67284;44.782;10.282;2023-04-15T16:44:02;99848.06;;;15.91
26158;BMP280;67284;44.782;10.282;2023-04-15T16:48:54;99843.00;;;15.88
26158;BMP280;67284;44.782;10.282;2023-04-15T16:53:47;99841.50;;;15.84
26158;BMP280;67284;44.782;10.282;2023-04-15T16:58:39;99852.78;;;15.83
26158;BMP280;67284;44.782;10.282;2023-04-15T17:03:32;99864.88;;;15.83
26158;BMP280;67284;44.782;10.282;2023-04-15T17:08:24;99877.16;;;15.79
26158;BMP280;67284;44.782;10.282;2023-04-15T17:13:17;99895.44;;;15.76
26158;BMP280;67284;44.782;10.282;2023-04-15T17:18:09;99899.97;;;15.71
26158;BMP280;67284;44.782;10.282;2023-04-15T17:23:02;99911.44;;;15.66
26158;BMP280;67284;44.782;10.282;2023-04-15T17:27:54;99922.06;;;15.60
26158;BMP280;67284;44.782;10.282;2023-04-15T17:32:46;99931.75;;;15.57
26158;BMP280;67284;44.782;10.282;2023-04-15T17:37:38;99928.63;;;15.49
26158;BMP280;67284;44.782;10.282;2023-04-15T17:42:30;99948.69;;;15.44
26158;BMP280;67284;44.782;10.282;2023-04-15T17:47:21;99956.72;;;15.38
26158;BMP280;67284;44.782;10.282;2023-04-15T17:52:14;99970.69;;;15.34
26158;BMP280;67284;44.782;10.282;2023-04-15T17:57:06;99979.53;;;15.30
26158;BMP280;67284;44.782;10.282;2023-04-15T18:01:58;99986.63;;;15.25
26158;BMP280;67284;44.782;10.282;2023-04-15T18:06:50;99995.38;;;15.22
26158;BMP280;67284;44.782;10.282;2023-04-15T18:11:42;100004.16;;;15.18
26158;BMP280;67284;44.782;10.282;2023-04-15T18:16:35;100002.53;;;15.16
26158;BMP280;67284;44.782;10.282;2023-04-15T18:21:27;100014.72;;;15.12
26158;BMP280;67284;44.782;10.282;2023-04-15T18:26:19;100028.63;;;15.10
26158;BMP280;67284;44.782;10.282;2023-04-15T18:31:12;100044.31;;;15.07
26158;BMP280;67284;44.782;10.282;2023-04-15T18:36:04;100053.97;;;15.04
26158;BMP280;67284;44.782;10.282;2023-04-15T18:40:56;100068.75;;;15.00
26158;BMP280;67284;44.782;10.282;2023-04-15T18:45:50;100093.06;;;14.96
26158;BMP280;67284;44.782;10.282;2023-04-15T18:50:42;100102.72;;;14.93
26158;BMP280;67284;44.782;10.282;2023-04-15T18:55:34;100110.56;;;14.91
26158;BMP280;67284;44.782;10.282;2023-04-15T19:00:26;100133.06;;;14.89
26158;BMP280;67284;44.782;10.282;2023-04-15T19:05:18;100136.69;;;14.85
26158;BMP280;67284;44.782;10.282;2023-04-15T19:10:10;100150.53;;;14.84
26158;BMP280;67284;44.782;10.282;2023-04-15T19:15:03;100153.22;;;14.81
26158;BMP280;67284;44.782;10.282;2023-04-15T19:19:55;100156.75;;;14.79
26158;BMP280;67284;44.782;10.282;2023-04-15T19:24:47;100163.81;;;14.75
26158;BMP280;67284;44.782;10.282;2023-04-15T19:29:39;100171.59;;;14.74
26158;BMP280;67284;44.782;10.282;2023-04-15T19:34:31;100182.13;;;14.69
26158;BMP280;67284;44.782;10.282;2023-04-15T19:39:23;100197.75;;;14.66
26158;BMP280;67284;44.782;10.282;2023-04-15T19:44:15;100198.69;;;14.64
26158;BMP280;67284;44.782;10.282;2023-04-15T19:49:07;100211.69;;;14.62
26158;BMP280;67284;44.782;10.282;2023-04-15T19:53:58;100206.63;;;14.59
26158;BMP280;67284;44.782;10.282;2023-04-15T19:58:51;100210.16;;;14.57
26158;BMP280;67284;44.782;10.282;2023-04-15T20:03:46;100217.97;;;14.56
26158;BMP280;67284;44.782;10.282;2023-04-15T20:08:38;100216.38;;;14.53
26158;BMP280;67284;44.782;10.282;2023-04-15T20:13:30;100225.91;;;14.51
26158;BMP280;67284;44.782;10.282;2023-04-15T20:18:23;100229.38;;;14.52
26158;BMP280;67284;44.782;10.282;2023-04-15T20:23:15;100225.97;;;14.50
26158;BMP280;67284;44.782;10.282;2023-04-15T20:28:07;100230.34;;;14.48
26158;BMP280;67284;44.782;10.282;2023-04-15T20:32:59;100233.03;;;14.45
26158;BMP280;67284;44.782;10.282;2023-04-15T20:37:51;100233.88;;;14.45
26158;BMP280;67284;44.782;10.282;2023-04-15T20:42:43;100241.69;;;14.44
26158;BMP280;67284;44.782;10.282;2023-04-15T20:47:35;100243.47;;;14.42
26158;BMP280;67284;44.782;10.282;2023-04-15T20:52:27;100257.31;;;14.41
26158;BMP280;67284;44.782;10.282;2023-04-15T20:57:19;100254.84;;;14.38
26158;BMP280;67284;44.782;10.282;2023-04-15T21:02:11;100263.44;;;14.38
26158;BMP280;67284;44.782;10.282;2023-04-15T21:07:03;100271.25;;;14.37
26158;BMP280;67284;44.782;10.282;2023-04-15T21:11:55;100278.19;;;14.36
26158;BMP280;67284;44.782;10.282;2023-04-15T21:16:52;100286.78;;;14.37
26158;BMP280;67284;44.782;10.282;2023-04-15T21:21:44;100290.34;;;14.33
26158;BMP280;67284;44.782;10.282;2023-04-15T21:26:36;100293.00;;;14.31
26158;BMP280;67284;44.782;10.282;2023-04-15T21:31:28;100315.44;;;14.31
26158;BMP280;67284;44.782;10.282;2023-04-15T21:36:20;100315.53;;;14.28
26158;BMP280;67284;44.782;10.282;2023-04-15T21:41:12;100331.91;;;14.28
26158;BMP280;67284;44.782;10.282;2023-04-15T21:46:04;100331.97;;;14.27
26158;BMP280;67284;44.782;10.282;2023-04-15T21:51:15;100346.63;;;14.26
26158;BMP280;67284;44.782;10.282;2023-04-15T21:56:07;100345.88;;;14.23
26158;BMP280;67284;44.782;10.282;2023-04-15T22:00:59;100346.91;;;14.17
26158;BMP280;67284;44.782;10.282;2023-04-15T22:05:51;100349.44;;;14.19
26158;BMP280;67284;44.782;10.282;2023-04-15T22:10:43;100350.28;;;14.19
26158;BMP280;67284;44.782;10.282;2023-04-15T22:15:36;100366.66;;;14.20
26158;BMP280;67284;44.782;10.282;2023-04-15T22:20:28;100370.16;;;14.19
26158;BMP280;67284;44.782;10.282;2023-04-15T22:25:20;100392.69;;;14.15
26158;BMP280;67284;44.782;10.282;2023-04-15T22:30:12;100402.25;;;14.12
26158;BMP280;67284;44.782;10.282;2023-04-15T22:35:04;100405.03;;;14.06
26158;BMP280;67284;44.782;10.282;2023-04-15T22:39:57;100415.44;;;14.03
26158;BMP280;67284;44.782;10.282;2023-04-15T22:44:50;100412.16;;;13.97
26158;BMP280;67284;44.782;10.282;2023-04-15T22:49:42;100407.91;;;13.94
26158;BMP280;67284;44.782;10.282;2023-04-15T22:54:35;100424.34;;;13.93
26158;BMP280;67284;44.782;10.282;2023-04-15T22:59:27;100426.09;;;13.91
26158;BMP280;67284;44.782;10.282;2023-04-15T23:04:19;100428.66;;;13.93
26158;BMP280;67284;44.782;10.282;2023-04-15T23:09:17;100429.50;;;13.93
26158;BMP280;67284;44.782;10.282;2023-04-15T23:14:09;100432.94;;;13.94
26158;BMP280;67284;44.782;10.282;2023-04-15T23:19:01;100435.56;;;13.92
26158;BMP280;67284;44.782;10.282;2023-04-15T23:23:53;100431.22;;;13.93
26158;BMP280;67284;44.782;10.282;2023-04-15T23:28:45;100433.88;;;13.91
26158;BMP280;67284;44.782;10.282;2023-04-15T23:33:37;100432.19;;;13.90
26158;BMP280;67284;44.782;10.282;2023-04-15T23:38:29;100436.53;;;13.88
26158;BMP280;67284;44.782;10.282;2023-04-15T23:43:21;100446.97;;;13.85
26158;BMP280;67284;44.782;10.282;2023-04-15T23:48:12;100442.84;;;13.78
26158;BMP280;67284;44.782;10.282;2023-04-15T23:53:04;100440.38;;;13.74
26158;BMP280;67284;44.782;10.282;2023-04-15T23:57:56;100452.47;;;13.73
